Aviation Digital Data Service (ADDS)

Output produced by METARs form (1132 UTC 18 June 2019)
found at http://www.aviationweather.gov/metar/data/
 
METAR text: VIAR 181100Z 18006KT 3500 HZ SCT040 32/20 Q1000 NOSIG
Conditions at: VIAR (AMRITSAR , IN) observed 1100 UTC 18 June 2019
Temperature: 32.0°C (90°F)
Dewpoint: 20.0°C (68°F) [RH = 49%]
Pressure (altimeter): 29.53 inches Hg (1000.0 mb)
Winds: from the S (180 degrees) at 7 MPH (6 knots; 3.1 m/s)
Visibility: 2.17 miles (3.49 km)
Ceiling: at least 12,000 feet AGL
Clouds: scattered clouds at 4000 feet AGL
Weather: HZ  (haze)

METAR text: VIAR 181030Z 15006KT 3500 HZ SCT040 31/19 Q1001 NOSIG
Conditions at: VIAR (AMRITSAR , IN) observed 1030 UTC 18 June 2019
Temperature: 31.0°C (88°F)
Dewpoint: 19.0°C (66°F) [RH = 49%]
Pressure (altimeter): 29.56 inches Hg (1001.0 mb)
Winds: from the SSE (150 degrees) at 7 MPH (6 knots; 3.1 m/s)
Visibility: 2.17 miles (3.49 km)
Ceiling: at least 12,000 feet AGL
Clouds: scattered clouds at 4000 feet AGL
Weather: HZ  (haze)

METAR text: VIAR 181000Z 17009KT 3500 HZ SCT040 32/19 Q1001 NOSIG
Conditions at: VIAR (AMRITSAR , IN) observed 1000 UTC 18 June 2019
Temperature: 32.0°C (90°F)
Dewpoint: 19.0°C (66°F) [RH = 46%]
Pressure (altimeter): 29.56 inches Hg (1001.0 mb)
Winds: from the S (170 degrees) at 10 MPH (9 knots; 4.6 m/s)
Visibility: 2.17 miles (3.49 km)
Ceiling: at least 12,000 feet AGL
Clouds: scattered clouds at 4000 feet AGL
Weather: HZ  (haze)

METAR text: VIAR 180930Z 14007KT 3500 HZ SCT040 32/18 Q1002 NOSIG
Conditions at: VIAR (AMRITSAR , IN) observed 0930 UTC 18 June 2019
Temperature: 32.0°C (90°F)
Dewpoint: 18.0°C (64°F) [RH = 43%]
Pressure (altimeter): 29.59 inches Hg (1002.0 mb)
Winds: from the SE (140 degrees) at 8 MPH (7 knots; 3.6 m/s)
Visibility: 2.17 miles (3.49 km)
Ceiling: at least 12,000 feet AGL
Clouds: scattered clouds at 4000 feet AGL
Weather: HZ  (haze)

METAR text: VIAR 180900Z 16009KT 3500 HZ SCT040 32/18 Q1002 NOSIG
Conditions at: VIAR (AMRITSAR , IN) observed 0900 UTC 18 June 2019
Temperature: 32.0°C (90°F)
Dewpoint: 18.0°C (64°F) [RH = 43%]
Pressure (altimeter): 29.59 inches Hg (1002.0 mb)
Winds: from the SSE (160 degrees) at 10 MPH (9 knots; 4.6 m/s)
Visibility: 2.17 miles (3.49 km)
Ceiling: at least 12,000 feet AGL
Clouds: scattered clouds at 4000 feet AGL
Weather: HZ  (haze)

METAR text: VIAR 180830Z 17008KT 3500 HZ SCT040 32/15 Q1002 NOSIG
Conditions at: VIAR (AMRITSAR , IN) observed 0830 UTC 18 June 2019
Temperature: 32.0°C (90°F)
Dewpoint: 15.0°C (59°F) [RH = 36%]
Pressure (altimeter): 29.59 inches Hg (1002.0 mb)
Winds: from the S (170 degrees) at 9 MPH (8 knots; 4.1 m/s)
Visibility: 2.17 miles (3.49 km)
Ceiling: at least 12,000 feet AGL
Clouds: scattered clouds at 4000 feet AGL
Weather: HZ  (haze)

METAR text: VIAR 180800Z 12005KT 3500 HZ FEW040 31/16 Q1002 NOSIG
Conditions at: VIAR (AMRITSAR , IN) observed 0800 UTC 18 June 2019
Temperature: 31.0°C (88°F)
Dewpoint: 16.0°C (61°F) [RH = 40%]
Pressure (altimeter): 29.59 inches Hg (1002.0 mb)
Winds: from the ESE (120 degrees) at 6 MPH (5 knots; 2.6 m/s)
Visibility: 2.17 miles (3.49 km)
Ceiling: at least 12,000 feet AGL
Clouds: few clouds at 4000 feet AGL
Weather: HZ  (haze)

METAR text: VIAR 180730Z 13005KT 4000 HZ NSC 31/16 Q1003 NOSIG
Conditions at: VIAR (AMRITSAR , IN) observed 0730 UTC 18 June 2019
Temperature: 31.0°C (88°F)
Dewpoint: 16.0°C (61°F) [RH = 40%]
Pressure (altimeter): 29.62 inches Hg (1003.0 mb)
Winds: from the SE (130 degrees) at 6 MPH (5 knots; 2.6 m/s)
Visibility: 2.49 miles (4.01 km)
Ceiling: at least 12,000 feet AGL
Clouds: sky clear below 12,000 feet AGL
Weather: HZ  (haze)

METAR text: VIAR 180700Z 14004KT 4000 HZ NSC 31/16 Q1003 NOSIG
Conditions at: VIAR (AMRITSAR , IN) observed 0700 UTC 18 June 2019
Temperature: 31.0°C (88°F)
Dewpoint: 16.0°C (61°F) [RH = 40%]
Pressure (altimeter): 29.62 inches Hg (1003.0 mb)
Winds: from the SE (140 degrees) at 5 MPH (4 knots; 2.1 m/s)
Visibility: 2.49 miles (4.01 km)
Ceiling: at least 12,000 feet AGL
Clouds: sky clear below 12,000 feet AGL
Weather: HZ  (haze)

METAR text: VIAR 180630Z 17006KT 4000 HZ NSC 29/16 Q1003 NOSIG
Conditions at: VIAR (AMRITSAR , IN) observed 0630 UTC 18 June 2019
Temperature: 29.0°C (84°F)
Dewpoint: 16.0°C (61°F) [RH = 45%]
Pressure (altimeter): 29.62 inches Hg (1003.0 mb)
Winds: from the S (170 degrees) at 7 MPH (6 knots; 3.1 m/s)
Visibility: 2.49 miles (4.01 km)
Ceiling: at least 12,000 feet AGL
Clouds: sky clear below 12,000 feet AGL
Weather: HZ  (haze)

METAR text: VIAR 180600Z 18007KT 4000 HZ FEW035 SCT100 30/17 Q1004 NOSIG
Conditions at: VIAR (AMRITSAR , IN) observed 0600 UTC 18 June 2019
Temperature: 30.0°C (86°F)
Dewpoint: 17.0°C (63°F) [RH = 46%]
Pressure (altimeter): 29.65 inches Hg (1004.0 mb)
Winds: from the S (180 degrees) at 8 MPH (7 knots; 3.6 m/s)
Visibility: 2.49 miles (4.01 km)
Ceiling: at least 12,000 feet AGL
Clouds: few clouds at 3500 feet AGL
scattered clouds at 10000 feet AGL
Weather: HZ  (haze)

METAR text: VIAR 180530Z 17007KT 4000 HZ FEW035 SCT100 28/17 Q1004 NOSIG
Conditions at: VIAR (AMRITSAR , IN) observed 0530 UTC 18 June 2019
Temperature: 28.0°C (82°F)
Dewpoint: 17.0°C (63°F) [RH = 51%]
Pressure (altimeter): 29.65 inches Hg (1004.0 mb)
Winds: from the S (170 degrees) at 8 MPH (7 knots; 3.6 m/s)
Visibility: 2.49 miles (4.01 km)
Ceiling: at least 12,000 feet AGL
Clouds: few clouds at 3500 feet AGL
scattered clouds at 10000 feet AGL
Weather: HZ  (haze)

METAR text: VIAR 180500Z 15007KT 4000 HZ FEW035 SCT100 29/18 Q1004 NOSIG
Conditions at: VIAR (AMRITSAR , IN) observed 0500 UTC 18 June 2019
Temperature: 29.0°C (84°F)
Dewpoint: 18.0°C (64°F) [RH = 52%]
Pressure (altimeter): 29.65 inches Hg (1004.0 mb)
Winds: from the SSE (150 degrees) at 8 MPH (7 knots; 3.6 m/s)
Visibility: 2.49 miles (4.01 km)
Ceiling: at least 12,000 feet AGL
Clouds: few clouds at 3500 feet AGL
scattered clouds at 10000 feet AGL
Weather: HZ  (haze)

METAR text: VIAR 180430Z 14005KT 4000 HZ FEW035 SCT100 28/18 Q1003 NOSIG
Conditions at: VIAR (AMRITSAR , IN) observed 0430 UTC 18 June 2019
Temperature: 28.0°C (82°F)
Dewpoint: 18.0°C (64°F) [RH = 55%]
Pressure (altimeter): 29.62 inches Hg (1003.0 mb)
Winds: from the SE (140 degrees) at 6 MPH (5 knots; 2.6 m/s)
Visibility: 2.49 miles (4.01 km)
Ceiling: at least 12,000 feet AGL
Clouds: few clouds at 3500 feet AGL
scattered clouds at 10000 feet AGL
Weather: HZ  (haze)

METAR text: VIAR 180400Z 15006KT 4000 HZ SCT035 FEW040TCU 27/18 Q1004 NOSIG
Conditions at: VIAR (AMRITSAR , IN) observed 0400 UTC 18 June 2019
Temperature: 27.0°C (81°F)
Dewpoint: 18.0°C (64°F) [RH = 58%]
Pressure (altimeter): 29.65 inches Hg (1004.0 mb)
Winds: from the SSE (150 degrees) at 7 MPH (6 knots; 3.1 m/s)
Visibility: 2.49 miles (4.01 km)
Ceiling: at least 12,000 feet AGL
Clouds: scattered clouds at 3500 feet AGL
few clouds at 4000 feet AGL
Weather: HZ  (haze)

METAR text: VIAR 180330Z 18007KT 4000 HZ FEW035 FEW040TCU 27/19 Q1004 NOSIG
Conditions at: VIAR (AMRITSAR , IN) observed 0330 UTC 18 June 2019
Temperature: 27.0°C (81°F)
Dewpoint: 19.0°C (66°F) [RH = 62%]
Pressure (altimeter): 29.65 inches Hg (1004.0 mb)
Winds: from the S (180 degrees) at 8 MPH (7 knots; 3.6 m/s)
Visibility: 2.49 miles (4.01 km)
Ceiling: at least 12,000 feet AGL
Clouds: few clouds at 3500 feet AGL
few clouds at 4000 feet AGL
Weather: HZ  (haze)

METAR text: VIAR 180300Z 16004KT 5000 HZ SCT035 FEW040TCU 26/19 Q1003 NOSIG
Conditions at: VIAR (AMRITSAR , IN) observed 0300 UTC 18 June 2019
Temperature: 26.0°C (79°F)
Dewpoint: 19.0°C (66°F) [RH = 65%]
Pressure (altimeter): 29.62 inches Hg (1003.0 mb)
Winds: from the SSE (160 degrees) at 5 MPH (4 knots; 2.1 m/s)
Visibility: 3 miles ( 5 km)
Ceiling: at least 12,000 feet AGL
Clouds: scattered clouds at 3500 feet AGL
few clouds at 4000 feet AGL
Weather: HZ  (haze)

METAR text: VIAR 180130Z 05004KT 4500 HZ FEW040 23/19 Q1002 BECMG 5000
Conditions at: VIAR (AMRITSAR , IN) observed 0130 UTC 18 June 2019
Temperature: 23.0°C (73°F)
Dewpoint: 19.0°C (66°F) [RH = 78%]
Pressure (altimeter): 29.59 inches Hg (1002.0 mb)
Winds: from the NE (50 degrees) at 5 MPH (4 knots; 2.1 m/s)
Visibility: 2.80 miles (4.51 km)
Ceiling: at least 12,000 feet AGL
Clouds: few clouds at 4000 feet AGL
Weather: HZ  (haze)

METAR text: VIAR 180100Z VRB02KT 4000 HZ FEW040 22/18 Q1002 BECMG 5000
Conditions at: VIAR (AMRITSAR , IN) observed 0100 UTC 18 June 2019
Temperature: 22.0°C (72°F)
Dewpoint: 18.0°C (64°F) [RH = 78%]
Pressure (altimeter): 29.59 inches Hg (1002.0 mb)
Winds: variable direction winds at 2 MPH (2 knots; 1.0 m/s)
Visibility: 2.49 miles (4.01 km)
Ceiling: at least 12,000 feet AGL
Clouds: few clouds at 4000 feet AGL
Weather: HZ  (haze)

METAR text: VIAR 180030Z VRB00KT 3500 HZ FEW040 22/18 Q1002 NOSIG
Conditions at: VIAR (AMRITSAR , IN) observed 0030 UTC 18 June 2019
Temperature: 22.0°C (72°F)
Dewpoint: 18.0°C (64°F) [RH = 78%]
Pressure (altimeter): 29.59 inches Hg (1002.0 mb)
Winds: calm
Visibility: 2.17 miles (3.49 km)
Ceiling: at least 12,000 feet AGL
Clouds: few clouds at 4000 feet AGL
Weather: HZ  (haze)

METAR text: VIAR 180000Z 00000KT 3500 HZ FEW040 21/18 Q1001 NOSIG
Conditions at: VIAR (AMRITSAR , IN) observed 0000 UTC 18 June 2019
Temperature: 21.0°C (70°F)
Dewpoint: 18.0°C (64°F) [RH = 83%]
Pressure (altimeter): 29.56 inches Hg (1001.0 mb)
Winds: calm
Visibility: 2.17 miles (3.49 km)
Ceiling: at least 12,000 feet AGL
Clouds: few clouds at 4000 feet AGL
Weather: HZ  (haze)

METAR text: VIAR 172330Z 00000KT 3000 HZ FEW040 22/18 Q1001 NOSIG
Conditions at: VIAR (AMRITSAR , IN) observed 2330 UTC 17 June 2019
Temperature: 22.0°C (72°F)
Dewpoint: 18.0°C (64°F) [RH = 78%]
Pressure (altimeter): 29.56 inches Hg (1001.0 mb)
Winds: calm
Visibility: 1.86 miles (2.99 km)
Ceiling: at least 12,000 feet AGL
Clouds: few clouds at 4000 feet AGL
Weather: HZ  (haze)

METAR text: VIAR 172300Z 00000KT 4000 HZ NSC 22/19 Q1000 NOSIG
Conditions at: VIAR (AMRITSAR , IN) observed 2300 UTC 17 June 2019
Temperature: 22.0°C (72°F)
Dewpoint: 19.0°C (66°F) [RH = 83%]
Pressure (altimeter): 29.53 inches Hg (1000.0 mb)
Winds: calm
Visibility: 2.49 miles (4.01 km)
Ceiling: at least 12,000 feet AGL
Clouds: sky clear below 12,000 feet AGL
Weather: HZ  (haze)

METAR text: VIAR 172230Z 00000KT 4000 HZ FEW040 23/19 Q1000 NOSIG
Conditions at: VIAR (AMRITSAR , IN) observed 2230 UTC 17 June 2019
Temperature: 23.0°C (73°F)
Dewpoint: 19.0°C (66°F) [RH = 78%]
Pressure (altimeter): 29.53 inches Hg (1000.0 mb)
Winds: calm
Visibility: 2.49 miles (4.01 km)
Ceiling: at least 12,000 feet AGL
Clouds: few clouds at 4000 feet AGL
Weather: HZ  (haze)

METAR text: VIAR 172200Z 00000KT 4000 HZ FEW040 22/19 Q1000 NOSIG
Conditions at: VIAR (AMRITSAR , IN) observed 2200 UTC 17 June 2019
Temperature: 22.0°C (72°F)
Dewpoint: 19.0°C (66°F) [RH = 83%]
Pressure (altimeter): 29.53 inches Hg (1000.0 mb)
Winds: calm
Visibility: 2.49 miles (4.01 km)
Ceiling: at least 12,000 feet AGL
Clouds: few clouds at 4000 feet AGL
Weather: HZ  (haze)

METAR text: VIAR 172130Z 13004KT 4000 HZ SCT040 SCT100 23/19 Q1000 NOSIG
Conditions at: VIAR (AMRITSAR , IN) observed 2130 UTC 17 June 2019
Temperature: 23.0°C (73°F)
Dewpoint: 19.0°C (66°F) [RH = 78%]
Pressure (altimeter): 29.53 inches Hg (1000.0 mb)
Winds: from the SE (130 degrees) at 5 MPH (4 knots; 2.1 m/s)
Visibility: 2.49 miles (4.01 km)
Ceiling: at least 12,000 feet AGL
Clouds: scattered clouds at 4000 feet AGL
scattered clouds at 10000 feet AGL
Weather: HZ  (haze)

METAR text: VIAR 172100Z 14004KT 4000 HZ SCT040 SCT100 23/19 Q1001 NOSIG
Conditions at: VIAR (AMRITSAR , IN) observed 2100 UTC 17 June 2019
Temperature: 23.0°C (73°F)
Dewpoint: 19.0°C (66°F) [RH = 78%]
Pressure (altimeter): 29.56 inches Hg (1001.0 mb)
Winds: from the SE (140 degrees) at 5 MPH (4 knots; 2.1 m/s)
Visibility: 2.49 miles (4.01 km)
Ceiling: at least 12,000 feet AGL
Clouds: scattered clouds at 4000 feet AGL
scattered clouds at 10000 feet AGL
Weather: HZ  (haze)

METAR text: VIAR 172000Z 14006KT 4000 HZ SCT040 SCT100 23/19 Q1001 NOSIG
Conditions at: VIAR (AMRITSAR , IN) observed 2000 UTC 17 June 2019
Temperature: 23.0°C (73°F)
Dewpoint: 19.0°C (66°F) [RH = 78%]
Pressure (altimeter): 29.56 inches Hg (1001.0 mb)
Winds: from the SE (140 degrees) at 7 MPH (6 knots; 3.1 m/s)
Visibility: 2.49 miles (4.01 km)
Ceiling: at least 12,000 feet AGL
Clouds: scattered clouds at 4000 feet AGL
scattered clouds at 10000 feet AGL
Weather: HZ  (haze)

METAR text: VIAR 171930Z 13007KT 4000 HZ SCT040 SCT100 23/20 Q1001 NOSIG
Conditions at: VIAR (AMRITSAR , IN) observed 1930 UTC 17 June 2019
Temperature: 23.0°C (73°F)
Dewpoint: 20.0°C (68°F) [RH = 83%]
Pressure (altimeter): 29.56 inches Hg (1001.0 mb)
Winds: from the SE (130 degrees) at 8 MPH (7 knots; 3.6 m/s)
Visibility: 2.49 miles (4.01 km)
Ceiling: at least 12,000 feet AGL
Clouds: scattered clouds at 4000 feet AGL
scattered clouds at 10000 feet AGL
Weather: HZ  (haze)

METAR text: VIAR 171900Z 09008KT 4000 HZ SCT040 SCT100 23/19 Q1001 NOSIG
Conditions at: VIAR (AMRITSAR , IN) observed 1900 UTC 17 June 2019
Temperature: 23.0°C (73°F)
Dewpoint: 19.0°C (66°F) [RH = 78%]
Pressure (altimeter): 29.56 inches Hg (1001.0 mb)
Winds: from the E (90 degrees) at 9 MPH (8 knots; 4.1 m/s)
Visibility: 2.49 miles (4.01 km)
Ceiling: at least 12,000 feet AGL
Clouds: scattered clouds at 4000 feet AGL
scattered clouds at 10000 feet AGL
Weather: HZ  (haze)

METAR text: VIAR 171830Z 08007KT 4000 HZ SCT040 SCT100 23/20 Q1001 NOSIG
Conditions at: VIAR (AMRITSAR , IN) observed 1830 UTC 17 June 2019
Temperature: 23.0°C (73°F)
Dewpoint: 20.0°C (68°F) [RH = 83%]
Pressure (altimeter): 29.56 inches Hg (1001.0 mb)
Winds: from the E (80 degrees) at 8 MPH (7 knots; 3.6 m/s)
Visibility: 2.49 miles (4.01 km)
Ceiling: at least 12,000 feet AGL
Clouds: scattered clouds at 4000 feet AGL
scattered clouds at 10000 feet AGL
Weather: HZ  (haze)

METAR text: VIAR 171800Z 06008KT 4000 HZ SCT040 SCT100 24/20 Q1001 NOSIG
Conditions at: VIAR (AMRITSAR , IN) observed 1800 UTC 17 June 2019
Temperature: 24.0°C (75°F)
Dewpoint: 20.0°C (68°F) [RH = 78%]
Pressure (altimeter): 29.56 inches Hg (1001.0 mb)
Winds: from the ENE (60 degrees) at 9 MPH (8 knots; 4.1 m/s)
Visibility: 2.49 miles (4.01 km)
Ceiling: at least 12,000 feet AGL
Clouds: scattered clouds at 4000 feet AGL
scattered clouds at 10000 feet AGL
Weather: HZ  (haze)

METAR text: VIAR 171730Z 07008KT 4000 HZ SCT040 OVC100 24/19 Q1002 NOSIG
Conditions at: VIAR (AMRITSAR , IN) observed 1730 UTC 17 June 2019
Temperature: 24.0°C (75°F)
Dewpoint: 19.0°C (66°F) [RH = 74%]
Pressure (altimeter): 29.59 inches Hg (1002.0 mb)
Winds: from the ENE (70 degrees) at 9 MPH (8 knots; 4.1 m/s)
Visibility: 2.49 miles (4.01 km)
Ceiling: 10000 feet AGL
Clouds: scattered clouds at 4000 feet AGL
overcast cloud deck at 10000 feet AGL
Weather: HZ  (haze)

METAR text: VIAR 171700Z 13004KT 4000 HZ SCT040 OVC100 24/18 Q1003 NOSIG
Conditions at: VIAR (AMRITSAR , IN) observed 1700 UTC 17 June 2019
Temperature: 24.0°C (75°F)
Dewpoint: 18.0°C (64°F) [RH = 69%]
Pressure (altimeter): 29.62 inches Hg (1003.0 mb)
Winds: from the SE (130 degrees) at 5 MPH (4 knots; 2.1 m/s)
Visibility: 2.49 miles (4.01 km)
Ceiling: 10000 feet AGL
Clouds: scattered clouds at 4000 feet AGL
overcast cloud deck at 10000 feet AGL
Weather: HZ  (haze)

METAR text: VIAR 171630Z 08010KT 4000 -TS SCT035 FEW040CB OVC100 23/18 Q1003 TEMPO 05020G35KT 3000 TSRA
Conditions at: VIAR (AMRITSAR , IN) observed 1630 UTC 17 June 2019
Temperature: 23.0°C (73°F)
Dewpoint: 18.0°C (64°F) [RH = 73%]
Pressure (altimeter): 29.62 inches Hg (1003.0 mb)
Winds: from the E (80 degrees) at 12 MPH (10 knots; 5.1 m/s)
Visibility: 2.49 miles (4.01 km)
Ceiling: 10000 feet AGL
Clouds: scattered clouds at 3500 feet AGL
few clouds at 4000 feet AGL
overcast cloud deck at 10000 feet AGL
Weather: -TS  (unknown weather)

METAR text: VIAR 171600Z 07010KT 4000 -TS SCT035 FEW040CB SCT100 23/18 Q1003 TEMPO 30020G40KT 3000 TSRA
Conditions at: VIAR (AMRITSAR , IN) observed 1600 UTC 17 June 2019
Temperature: 23.0°C (73°F)
Dewpoint: 18.0°C (64°F) [RH = 73%]
Pressure (altimeter): 29.62 inches Hg (1003.0 mb)
Winds: from the ENE (70 degrees) at 12 MPH (10 knots; 5.1 m/s)
Visibility: 2.49 miles (4.01 km)
Ceiling: at least 12,000 feet AGL
Clouds: scattered clouds at 3500 feet AGL
few clouds at 4000 feet AGL
scattered clouds at 10000 feet AGL
Weather: -TS  (unknown weather)

METAR text: VIAR 171530Z 31019KT 4000 TSRA SCT035 FEW040CB SCT100 26/18 Q1004 TEMPO 30020G40KT 3000 TSRA
Conditions at: VIAR (AMRITSAR , IN) observed 1530 UTC 17 June 2019
Temperature: 26.0°C (79°F)
Dewpoint: 18.0°C (64°F) [RH = 61%]
Pressure (altimeter): 29.65 inches Hg (1004.0 mb)
Winds: from the NW (310 degrees) at 22 MPH (19 knots; 9.8 m/s)
Visibility: 2.49 miles (4.01 km)
Ceiling: at least 12,000 feet AGL
Clouds: scattered clouds at 3500 feet AGL
few clouds at 4000 feet AGL
scattered clouds at 10000 feet AGL
Weather: TSRA  (rain associated with thunderstorm(s))

METAR text: VIAR 171517Z 34014KT 4000 TSRA SCT035 FEW040CB SCT100 26/18 Q1003 TEMPO 30020G40KT 3000 TSRA
Conditions at: VIAR (AMRITSAR , IN) observed 1517 UTC 17 June 2019
Temperature: 26.0°C (79°F)
Dewpoint: 18.0°C (64°F) [RH = 61%]
Pressure (altimeter): 29.62 inches Hg (1003.0 mb)
Winds: from the NNW (340 degrees) at 16 MPH (14 knots; 7.2 m/s)
Visibility: 2.49 miles (4.01 km)
Ceiling: at least 12,000 feet AGL
Clouds: scattered clouds at 3500 feet AGL
few clouds at 4000 feet AGL
scattered clouds at 10000 feet AGL
Weather: TSRA  (rain associated with thunderstorm(s))

METAR text: VIAR 171500Z 02016KT 4000 TS SCT035 FEW040CB SCT100 27/18 Q1000 TEMPO 11020G40KT 3000 TSRA
Conditions at: VIAR (AMRITSAR , IN) observed 1500 UTC 17 June 2019
Temperature: 27.0°C (81°F)
Dewpoint: 18.0°C (64°F) [RH = 58%]
Pressure (altimeter): 29.53 inches Hg (1000.0 mb)
Winds: from the NNE (20 degrees) at 18 MPH (16 knots; 8.2 m/s)
Visibility: 2.49 miles (4.01 km)
Ceiling: at least 12,000 feet AGL
Clouds: scattered clouds at 3500 feet AGL
few clouds at 4000 feet AGL
scattered clouds at 10000 feet AGL
Weather: TS  (thunderstorm)

METAR text: VIAR 171400Z 09011KT 4000 HZ SCT035 FEW040CB SCT100 27/17 Q0998 TEMPO 31020G40KT 3000 TSRA
Conditions at: VIAR (AMRITSAR , IN) observed 1400 UTC 17 June 2019
Temperature: 27.0°C (81°F)
Dewpoint: 17.0°C (63°F) [RH = 54%]
Pressure (altimeter): 29.47 inches Hg (998.0 mb)
Winds: from the E (90 degrees) at 13 MPH (11 knots; 5.7 m/s)
Visibility: 2.49 miles (4.01 km)
Ceiling: at least 12,000 feet AGL
Clouds: scattered clouds at 3500 feet AGL
few clouds at 4000 feet AGL
scattered clouds at 10000 feet AGL
Weather: HZ  (haze)

METAR text: VIAR 171330Z 08014KT 3500 RA SCT035 FEW040CB SCT100 31/17 Q0999 TEMPO 31020G40KT 3000 TSRA
Conditions at: VIAR (AMRITSAR , IN) observed 1330 UTC 17 June 2019
Temperature: 31.0°C (88°F)
Dewpoint: 17.0°C (63°F) [RH = 43%]
Pressure (altimeter): 29.50 inches Hg (999.0 mb)
Winds: from the E (80 degrees) at 16 MPH (14 knots; 7.2 m/s)
Visibility: 2.17 miles (3.49 km)
Ceiling: at least 12,000 feet AGL
Clouds: scattered clouds at 3500 feet AGL
few clouds at 4000 feet AGL
scattered clouds at 10000 feet AGL
Weather: RA  (moderate rain)

METAR text: VIAR 171300Z 05015KT 3500 HZ SCT035 FEW040CB SCT100 33/17 Q0998 TEMPO 21020G40KT 3000 DS TS
Conditions at: VIAR (AMRITSAR , IN) observed 1300 UTC 17 June 2019
Temperature: 33.0°C (91°F)
Dewpoint: 17.0°C (63°F) [RH = 39%]
Pressure (altimeter): 29.47 inches Hg (998.0 mb)
Winds: from the NE (50 degrees) at 17 MPH (15 knots; 7.7 m/s)
Visibility: 2.17 miles (3.49 km)
Ceiling: at least 12,000 feet AGL
Clouds: scattered clouds at 3500 feet AGL
few clouds at 4000 feet AGL
scattered clouds at 10000 feet AGL
Weather: HZ  (haze)

METAR text: VIAR 171200Z 21013KT 4000 HZ SCT035 FEW040CB 35/18 Q0996 TEMPO 21020G40KT 3000 DS TS
Conditions at: VIAR (AMRITSAR , IN) observed 1200 UTC 17 June 2019
Temperature: 35.0°C (95°F)
Dewpoint: 18.0°C (64°F) [RH = 37%]
Pressure (altimeter): 29.41 inches Hg (996.0 mb)
Winds: from the SSW (210 degrees) at 15 MPH (13 knots; 6.7 m/s)
Visibility: 2.49 miles (4.01 km)
Ceiling: at least 12,000 feet AGL
Clouds: scattered clouds at 3500 feet AGL
few clouds at 4000 feet AGL
Weather: HZ  (haze)

METAR text: VIAR 171100Z 26010KT 4000 HZ FEW035 FEW040CB 40/19 Q0996 TEMPO 31020G40KT 3000 DS TS
Conditions at: VIAR (AMRITSAR , IN) observed 1100 UTC 17 June 2019
Temperature: 40.0°C (104°F)
Dewpoint: 19.0°C (66°F) [RH = 30%]
Pressure (altimeter): 29.41 inches Hg (996.0 mb)
Winds: from the W (260 degrees) at 12 MPH (10 knots; 5.1 m/s)
Visibility: 2.49 miles (4.01 km)
Ceiling: at least 12,000 feet AGL
Clouds: few clouds at 3500 feet AGL
few clouds at 4000 feet AGL
Weather: HZ  (haze)

METAR text: VIAR 171030Z 26010KT 4000 HZ SCT040 40/19 Q0996 NOSIG
Conditions at: VIAR (AMRITSAR , IN) observed 1030 UTC 17 June 2019
Temperature: 40.0°C (104°F)
Dewpoint: 19.0°C (66°F) [RH = 30%]
Pressure (altimeter): 29.41 inches Hg (996.0 mb)
Winds: from the W (260 degrees) at 12 MPH (10 knots; 5.1 m/s)
Visibility: 2.49 miles (4.01 km)
Ceiling: at least 12,000 feet AGL
Clouds: scattered clouds at 4000 feet AGL
Weather: HZ  (haze)

METAR text: VIAR 171000Z 28009KT 4000 HZ SCT040 39/19 Q0997 NOSIG
Conditions at: VIAR (AMRITSAR , IN) observed 1000 UTC 17 June 2019
Temperature: 39.0°C (102°F)
Dewpoint: 19.0°C (66°F) [RH = 31%]
Pressure (altimeter): 29.44 inches Hg (997.0 mb)
Winds: from the W (280 degrees) at 10 MPH (9 knots; 4.6 m/s)
Visibility: 2.49 miles (4.01 km)
Ceiling: at least 12,000 feet AGL
Clouds: scattered clouds at 4000 feet AGL
Weather: HZ  (haze)

METAR text: VIAR 170930Z 26008KT 4000 HZ SCT040 40/19 Q0997 NOSIG
Conditions at: VIAR (AMRITSAR , IN) observed 0930 UTC 17 June 2019
Temperature: 40.0°C (104°F)
Dewpoint: 19.0°C (66°F) [RH = 30%]
Pressure (altimeter): 29.44 inches Hg (997.0 mb)
Winds: from the W (260 degrees) at 9 MPH (8 knots; 4.1 m/s)
Visibility: 2.49 miles (4.01 km)
Ceiling: at least 12,000 feet AGL
Clouds: scattered clouds at 4000 feet AGL
Weather: HZ  (haze)

METAR text: VIAR 170900Z 23007KT 4000 HZ SCT040 40/19 Q0998 NOSIG
Conditions at: VIAR (AMRITSAR , IN) observed 0900 UTC 17 June 2019
Temperature: 40.0°C (104°F)
Dewpoint: 19.0°C (66°F) [RH = 30%]
Pressure (altimeter): 29.47 inches Hg (998.0 mb)
Winds: from the SW (230 degrees) at 8 MPH (7 knots; 3.6 m/s)
Visibility: 2.49 miles (4.01 km)
Ceiling: at least 12,000 feet AGL
Clouds: scattered clouds at 4000 feet AGL
Weather: HZ  (haze)

METAR text: VIAR 170830Z 25006KT 4000 HZ SCT040 39/20 Q0999 NOSIG
Conditions at: VIAR (AMRITSAR , IN) observed 0830 UTC 17 June 2019
Temperature: 39.0°C (102°F)
Dewpoint: 20.0°C (68°F) [RH = 33%]
Pressure (altimeter): 29.50 inches Hg (999.0 mb)
Winds: from the WSW (250 degrees) at 7 MPH (6 knots; 3.1 m/s)
Visibility: 2.49 miles (4.01 km)
Ceiling: at least 12,000 feet AGL
Clouds: scattered clouds at 4000 feet AGL
Weather: HZ  (haze)

METAR text: VIAR 170800Z 30004KT 4000 HZ SCT040 39/20 Q0999 NOSIG
Conditions at: VIAR (AMRITSAR , IN) observed 0800 UTC 17 June 2019
Temperature: 39.0°C (102°F)
Dewpoint: 20.0°C (68°F) [RH = 33%]
Pressure (altimeter): 29.50 inches Hg (999.0 mb)
Winds: from the WNW (300 degrees) at 5 MPH (4 knots; 2.1 m/s)
Visibility: 2.49 miles (4.01 km)
Ceiling: at least 12,000 feet AGL
Clouds: scattered clouds at 4000 feet AGL
Weather: HZ  (haze)

METAR text: VIAR 170730Z 28007KT 4000 HZ SCT040 38/20 Q1000 NOSIG
Conditions at: VIAR (AMRITSAR , IN) observed 0730 UTC 17 June 2019
Temperature: 38.0°C (100°F)
Dewpoint: 20.0°C (68°F) [RH = 35%]
Pressure (altimeter): 29.53 inches Hg (1000.0 mb)
Winds: from the W (280 degrees) at 8 MPH (7 knots; 3.6 m/s)
Visibility: 2.49 miles (4.01 km)
Ceiling: at least 12,000 feet AGL
Clouds: scattered clouds at 4000 feet AGL
Weather: HZ  (haze)

METAR text: VIAR 170700Z 28003KT 4000 HZ SCT040 37/20 Q1000 NOSIG
Conditions at: VIAR (AMRITSAR , IN) observed 0700 UTC 17 June 2019
Temperature: 37.0°C (99°F)
Dewpoint: 20.0°C (68°F) [RH = 37%]
Pressure (altimeter): 29.53 inches Hg (1000.0 mb)
Winds: from the W (280 degrees) at 3 MPH (3 knots; 1.5 m/s)
Visibility: 2.49 miles (4.01 km)
Ceiling: at least 12,000 feet AGL
Clouds: scattered clouds at 4000 feet AGL
Weather: HZ  (haze)

METAR text: VIAR 170630Z 26006KT 4000 HZ SCT040 37/20 Q1000 NOSIG
Conditions at: VIAR (AMRITSAR , IN) observed 0630 UTC 17 June 2019
Temperature: 37.0°C (99°F)
Dewpoint: 20.0°C (68°F) [RH = 37%]
Pressure (altimeter): 29.53 inches Hg (1000.0 mb)
Winds: from the W (260 degrees) at 7 MPH (6 knots; 3.1 m/s)
Visibility: 2.49 miles (4.01 km)
Ceiling: at least 12,000 feet AGL
Clouds: scattered clouds at 4000 feet AGL
Weather: HZ  (haze)

METAR text: VIAR 170600Z 24004KT 4000 HZ SCT040 37/21 Q1000 NOSIG
Conditions at: VIAR (AMRITSAR , IN) observed 0600 UTC 17 June 2019
Temperature: 37.0°C (99°F)
Dewpoint: 21.0°C (70°F) [RH = 40%]
Pressure (altimeter): 29.53 inches Hg (1000.0 mb)
Winds: from the WSW (240 degrees) at 5 MPH (4 knots; 2.1 m/s)
Visibility: 2.49 miles (4.01 km)
Ceiling: at least 12,000 feet AGL
Clouds: scattered clouds at 4000 feet AGL
Weather: HZ  (haze)

METAR text: VIAR 170530Z VRB02KT 4000 HZ NSC 36/21 Q1000 NOSIG
Conditions at: VIAR (AMRITSAR , IN) observed 0530 UTC 17 June 2019
Temperature: 36.0°C (97°F)
Dewpoint: 21.0°C (70°F) [RH = 42%]
Pressure (altimeter): 29.53 inches Hg (1000.0 mb)
Winds: variable direction winds at 2 MPH (2 knots; 1.0 m/s)
Visibility: 2.49 miles (4.01 km)
Ceiling: at least 12,000 feet AGL
Clouds: sky clear below 12,000 feet AGL
Weather: HZ  (haze)

METAR text: VIAR 170500Z VRB03KT 3500 HZ NSC 35/21 Q1001 NOSIG
Conditions at: VIAR (AMRITSAR , IN) observed 0500 UTC 17 June 2019
Temperature: 35.0°C (95°F)
Dewpoint: 21.0°C (70°F) [RH = 44%]
Pressure (altimeter): 29.56 inches Hg (1001.0 mb)
Winds: variable direction winds at 3 MPH (3 knots; 1.5 m/s)
Visibility: 2.17 miles (3.49 km)
Ceiling: at least 12,000 feet AGL
Clouds: sky clear below 12,000 feet AGL
Weather: HZ  (haze)

METAR text: VIAR 170430Z 25006KT 3500 HZ NSC 35/21 Q1001 NOSIG
Conditions at: VIAR (AMRITSAR , IN) observed 0430 UTC 17 June 2019
Temperature: 35.0°C (95°F)
Dewpoint: 21.0°C (70°F) [RH = 44%]
Pressure (altimeter): 29.56 inches Hg (1001.0 mb)
Winds: from the WSW (250 degrees) at 7 MPH (6 knots; 3.1 m/s)
Visibility: 2.17 miles (3.49 km)
Ceiling: at least 12,000 feet AGL
Clouds: sky clear below 12,000 feet AGL
Weather: HZ  (haze)

METAR text: VIAR 170400Z 26005KT 3500 HZ NSC 34/22 Q1001 NOSIG
Conditions at: VIAR (AMRITSAR , IN) observed 0400 UTC 17 June 2019
Temperature: 34.0°C (93°F)
Dewpoint: 22.0°C (72°F) [RH = 50%]
Pressure (altimeter): 29.56 inches Hg (1001.0 mb)
Winds: from the W (260 degrees) at 6 MPH (5 knots; 2.6 m/s)
Visibility: 2.17 miles (3.49 km)
Ceiling: at least 12,000 feet AGL
Clouds: sky clear below 12,000 feet AGL
Weather: HZ  (haze)

METAR text: VIAR 170330Z 27004KT 3000 HZ NSC 33/22 Q1001 BECMG 5000 HZ
Conditions at: VIAR (AMRITSAR , IN) observed 0330 UTC 17 June 2019
Temperature: 33.0°C (91°F)
Dewpoint: 22.0°C (72°F) [RH = 53%]
Pressure (altimeter): 29.56 inches Hg (1001.0 mb)
Winds: from the W (270 degrees) at 5 MPH (4 knots; 2.1 m/s)
Visibility: 1.86 miles (2.99 km)
Ceiling: at least 12,000 feet AGL
Clouds: sky clear below 12,000 feet AGL
Weather: HZ  (haze)

METAR text: VIAR 170300Z VRB02KT 3000 HZ NSC 33/22 Q1001 BECMG 5000 HZ
Conditions at: VIAR (AMRITSAR , IN) observed 0300 UTC 17 June 2019
Temperature: 33.0°C (91°F)
Dewpoint: 22.0°C (72°F) [RH = 53%]
Pressure (altimeter): 29.56 inches Hg (1001.0 mb)
Winds: variable direction winds at 2 MPH (2 knots; 1.0 m/s)
Visibility: 1.86 miles (2.99 km)
Ceiling: at least 12,000 feet AGL
Clouds: sky clear below 12,000 feet AGL
Weather: HZ  (haze)

METAR text: VIAR 170230Z VRB02KT 3000 HZ NSC 31/22 Q1001 BECMG 5000 HZ
Conditions at: VIAR (AMRITSAR , IN) observed 0230 UTC 17 June 2019
Temperature: 31.0°C (88°F)
Dewpoint: 22.0°C (72°F) [RH = 59%]
Pressure (altimeter): 29.56 inches Hg (1001.0 mb)
Winds: variable direction winds at 2 MPH (2 knots; 1.0 m/s)
Visibility: 1.86 miles (2.99 km)
Ceiling: at least 12,000 feet AGL
Clouds: sky clear below 12,000 feet AGL
Weather: HZ  (haze)

METAR text: VIAR 170200Z 00000KT 3000 HZ FEW100 30/21 Q1001 NOSIG
Conditions at: VIAR (AMRITSAR , IN) observed 0200 UTC 17 June 2019
Temperature: 30.0°C (86°F)
Dewpoint: 21.0°C (70°F) [RH = 59%]
Pressure (altimeter): 29.56 inches Hg (1001.0 mb)
Winds: calm
Visibility: 1.86 miles (2.99 km)
Ceiling: at least 12,000 feet AGL
Clouds: few clouds at 10000 feet AGL
Weather: HZ  (haze)

METAR text: VIAR 170130Z 00000KT 3000 HZ FEW100 29/21 Q1000 NOSIG
Conditions at: VIAR (AMRITSAR , IN) observed 0130 UTC 17 June 2019
Temperature: 29.0°C (84°F)
Dewpoint: 21.0°C (70°F) [RH = 62%]
Pressure (altimeter): 29.53 inches Hg (1000.0 mb)
Winds: calm
Visibility: 1.86 miles (2.99 km)
Ceiling: at least 12,000 feet AGL
Clouds: few clouds at 10000 feet AGL
Weather: HZ  (haze)

METAR text: VIAR 170100Z 00000KT 3000 HZ FEW100 28/21 Q1000 NOSIG
Conditions at: VIAR (AMRITSAR , IN) observed 0100 UTC 17 June 2019
Temperature: 28.0°C (82°F)
Dewpoint: 21.0°C (70°F) [RH = 66%]
Pressure (altimeter): 29.53 inches Hg (1000.0 mb)
Winds: calm
Visibility: 1.86 miles (2.99 km)
Ceiling: at least 12,000 feet AGL
Clouds: few clouds at 10000 feet AGL
Weather: HZ  (haze)

METAR text: VIAR 170030Z 00000KT 3500 HZ FEW100 27/21 Q1000 BECMG 3000 HZ
Conditions at: VIAR (AMRITSAR , IN) observed 0030 UTC 17 June 2019
Temperature: 27.0°C (81°F)
Dewpoint: 21.0°C (70°F) [RH = 70%]
Pressure (altimeter): 29.53 inches Hg (1000.0 mb)
Winds: calm
Visibility: 2.17 miles (3.49 km)
Ceiling: at least 12,000 feet AGL
Clouds: few clouds at 10000 feet AGL
Weather: HZ  (haze)

METAR text: VIAR 170000Z 00000KT 3500 HZ FEW100 27/21 Q1000 BECMG 3000 HZ
Conditions at: VIAR (AMRITSAR , IN) observed 0000 UTC 17 June 2019
Temperature: 27.0°C (81°F)
Dewpoint: 21.0°C (70°F) [RH = 70%]
Pressure (altimeter): 29.53 inches Hg (1000.0 mb)
Winds: calm
Visibility: 2.17 miles (3.49 km)
Ceiling: at least 12,000 feet AGL
Clouds: few clouds at 10000 feet AGL
Weather: HZ  (haze)

Forecast for: VIAR (AMRITSAR , IN)
Text: TAF VIAR 181100Z 1812/1918 17008KT 4000 HZ SCT040
Forecast period: 1200 to 1500 UTC 18 June 2019
Forecast type: FROM: standard forecast or significant change
Winds: from the S (170 degrees) at 9 MPH (8 knots; 4.1 m/s)
Visibility: 2.49 miles (4.01 km)
Ceiling: at least 12,000 feet AGL
Clouds: scattered clouds at 4000 feet AGL
Weather: HZ  (haze)
Text: BECMG 1815/1817 34006KT 3000 HZ FEW035 SCT100
Forecast period: 1500 UTC 18 June 2019 to 0300 UTC 19 June 2019
Forecast type: BECOMING: Conditions expected to become as follows by 1700 UTC 18 June 2019
Winds: from the NNW (340 degrees) at 7 MPH (6 knots; 3.1 m/s)
Visibility: 1.86 miles (2.99 km)
Ceiling: at least 12,000 feet AGL
Clouds: few clouds at 3500 feet AGL
scattered clouds at 10000 feet AGL
Weather: HZ  (haze)
Text: BECMG 1903/1905 23005KT 4500 HZ SCT035 BKN100
Forecast period: 0300 to 0800 UTC 19 June 2019
Forecast type: BECOMING: Conditions expected to become as follows by 0500 UTC 19 June 2019
Winds: from the SW (230 degrees) at 6 MPH (5 knots; 2.6 m/s)
Visibility: 2.80 miles (4.51 km)
Ceiling: 10000 feet AGL
Clouds: scattered clouds at 3500 feet AGL
broken clouds at 10000 feet AGL
Weather: HZ  (haze)
Text: BECMG 1908/1914 24010G20KT 1000 TSRA FEW040CB OVC080
Forecast period: 0800 to 1500 UTC 19 June 2019
Forecast type: BECOMING: Conditions expected to become as follows by 1400 UTC 19 June 2019
Winds: from the WSW (240 degrees) at 12 MPH (10 knots; 5.1 m/s)
gusting to 23 MPH (20 knots; 10.3 m/s)
Visibility: 0.62 miles (1.00 km)
Ceiling: 8000 feet AGL
Clouds: few clouds at 4000 feet AGL
overcast cloud deck at 8000 feet AGL
Weather: TSRA  (rain associated with thunderstorm(s))
Text: BECMG 1915/1917 VRB02KT 3500 HZ FEW040 SCT100
Forecast period: 1500 to 1800 UTC 19 June 2019
Forecast type: BECOMING: Conditions expected to become as follows by 1700 UTC 19 June 2019
Winds: variable direction winds at 2 MPH (2 knots; 1.0 m/s)
Visibility: 2.17 miles (3.49 km)
Ceiling: at least 12,000 feet AGL
Clouds: few clouds at 4000 feet AGL
scattered clouds at 10000 feet AGL
Weather: HZ  (haze)